Manchester, CT (06040)

8:53 PM EST on November 26, 2014 (GMT -0500)
Club Deepwood (NMAMWS) | Change Station
CLOSE
Current Station
Personal Weather Station
Location: Manchester, CT
Elevation: 167 ft
Nearby Weather Stations

Elev 167 ft 41.78 °N, 72.55 °W | Updated 8 seconds ago

Snow
Snow
33.0 °F
Feels Like 33 °F
N
3.0
Wind Variable Wind from NNE
Gusts 3.0 mph

Today
High -- | Low -- °F
--% Chance of Precip.
Yesterday
High -- | Low -- °F
Precip. -- in
6:52 AM 4:22 PM
Waxing Crescent, 24% visible
Pressure 29.76 in
Visibility 2.5 miles
Clouds Overcast 800 ft
Windchill 33 °F
Dew Point 32 °F
Humidity 95%
Rainfall 0.40 in
Snow Depth Not available.
UV 0.0 out of 12
Pollen .10 out of 12
Air Quality Not available.
Flu Activity Not available.
METAR KHFD 270053Z AUTO 35013G19KT 2 1/2SM -SN BR OVC008 01/M01 A2976 RMK AO2 RAE03B19E35SNB03 SLP078 P0003 T00061006

More Conditions Fewer Conditions

Pressure 29.76 in
Visibility 2.5 miles
Clouds Overcast 800 ft
Windchill 33 °F
Dew Point 32 °F
Humidity 95%
Rainfall 0.40 in
Snow Depth Not available.
UV 0.0 out of 12
Pollen .10 out of 12
Air Quality Not available.
Flu Activity Not available.
METAR KHFD 270053Z AUTO 35013G19KT 2 1/2SM -SN BR OVC008 01/M01 A2976 RMK AO2 RAE03B19E35SNB03 SLP078 P0003 T00061006

More Conditions Fewer Conditions

10-Day Weather Forecast

Almanac

Astronomy

Nov. 26, 2014 Rise Set
Actual Time
Civil Twilight
Nautical Twilight
Astronomical Twilight
Moon
Length of Visible Light
Length of Day
Tomorrow will be .
, % of the Moon is Illuminated

Today's Extremes

State Highs State Lows

Community

WunderPhotos

Upload Photos

1,773,940 photos uploaded!

WunderBlogs® & News

Nearby

Air Quality

  Air Quality AQ Index Pollutant
Not available.

Snow Depth

Station Depth Elevation

Earthquake Activity

City Distance Mag. Time & Date
Minimum magnitude displayed is 2.5.

Coastal Water Temperatures

Place Temperature

Nearby Weather Stations